sensor_id;sensor_type;location;lat;lon;timestamp;temperature;humidity
19555;DHT22;9924;50.828;6.440;2023-04-24T00:00:43;10.50;99.90
19555;DHT22;9924;50.828;6.440;2023-04-24T00:03:32;10.50;99.90
19555;DHT22;9924;50.828;6.440;2023-04-24T00:06:17;10.50;99.90
19555;DHT22;9924;50.828;6.440;2023-04-24T00:09:02;10.50;99.90
19555;DHT22;9924;50.828;6.440;2023-04-24T00:11:49;10.50;99.90
19555;DHT22;9924;50.828;6.440;2023-04-24T00:14:33;10.50;99.90
19555;DHT22;9924;50.828;6.440;2023-04-24T00:17:19;10.50;99.90
19555;DHT22;9924;50.828;6.440;2023-04-24T00:20:07;10.50;99.90
19555;DHT22;9924;50.828;6.440;2023-04-24T00:22:51;10.50;99.90
19555;DHT22;9924;50.828;6.440;2023-04-24T00:25:36;10.40;99.90
19555;DHT22;9924;50.828;6.440;2023-04-24T00:28:22;10.50;99.90
19555;DHT22;9924;50.828;6.440;2023-04-24T00:31:06;10.50;99.90
19555;DHT22;9924;50.828;6.440;2023-04-24T00:33:51;10.40;99.90
19555;DHT22;9924;50.828;6.440;2023-04-24T00:36:35;10.40;99.90
19555;DHT22;9924;50.828;6.440;2023-04-24T00:39:20;10.40;99.90
19555;DHT22;9924;50.828;6.440;2023-04-24T00:42:04;10.30;99.90
19555;DHT22;9924;50.828;6.440;2023-04-24T00:44:51;10.30;99.90
19555;DHT22;9924;50.828;6.440;2023-04-24T00:47:37;10.10;99.90
19555;DHT22;9924;50.828;6.440;2023-04-24T00:50:23;10.00;99.90
19555;DHT22;9924;50.828;6.440;2023-04-24T00:53:08;9.90;99.90
19555;DHT22;9924;50.828;6.440;2023-04-24T00:55:54;9.80;99.90
19555;DHT22;9924;50.828;6.440;2023-04-24T00:58:42;9.70;99.90
19555;DHT22;9924;50.828;6.440;2023-04-24T01:01:27;9.60;99.90
19555;DHT22;9924;50.828;6.440;2023-04-24T01:04:11;9.40;99.90
19555;DHT22;9924;50.828;6.440;2023-04-24T01:06:56;9.30;99.90
19555;DHT22;9924;50.828;6.440;2023-04-24T01:09:41;9.30;99.90
19555;DHT22;9924;50.828;6.440;2023-04-24T01:12:27;9.30;99.90
19555;DHT22;9924;50.828;6.440;2023-04-24T01:15:11;9.20;99.90
19555;DHT22;9924;50.828;6.440;2023-04-24T01:17:56;9.20;99.90
19555;DHT22;9924;50.828;6.440;2023-04-24T01:20:42;9.00;99.90
19555;DHT22;9924;50.828;6.440;2023-04-24T01:23:28;8.90;99.90
19555;DHT22;9924;50.828;6.440;2023-04-24T01:26:15;8.80;99.90
19555;DHT22;9924;50.828;6.440;2023-04-24T01:29:00;8.80;99.90
19555;DHT22;9924;50.828;6.440;2023-04-24T01:31:46;8.70;99.90
19555;DHT22;9924;50.828;6.440;2023-04-24T01:34:32;8.70;99.90
19555;DHT22;9924;50.828;6.440;2023-04-24T01:37:17;8.70;99.90
19555;DHT22;9924;50.828;6.440;2023-04-24T01:40:03;8.80;99.90
19555;DHT22;9924;50.828;6.440;2023-04-24T01:42:48;8.80;99.90
19555;DHT22;9924;50.828;6.440;2023-04-24T01:45:33;8.80;99.90
19555;DHT22;9924;50.828;6.440;2023-04-24T01:48:17;8.80;99.90
19555;DHT22;9924;50.828;6.440;2023-04-24T01:51:02;8.80;99.90
19555;DHT22;9924;50.828;6.440;2023-04-24T01:53:48;8.90;99.90
19555;DHT22;9924;50.828;6.440;2023-04-24T01:56:34;8.90;99.90
19555;DHT22;9924;50.828;6.440;2023-04-24T01:59:23;8.90;99.90
19555;DHT22;9924;50.828;6.440;2023-04-24T02:02:09;8.90;99.90
19555;DHT22;9924;50.828;6.440;2023-04-24T02:04:55;8.90;99.90
19555;DHT22;9924;50.828;6.440;2023-04-24T02:07:39;8.80;99.90
19555;DHT22;9924;50.828;6.440;2023-04-24T02:10:25;8.70;99.90
19555;DHT22;9924;50.828;6.440;2023-04-24T02:13:10;8.70;99.90
19555;DHT22;9924;50.828;6.440;2023-04-24T02:15:55;8.60;99.90
19555;DHT22;9924;50.828;6.440;2023-04-24T02:18:39;8.60;99.90
19555;DHT22;9924;50.828;6.440;2023-04-24T02:21:23;8.60;99.90
19555;DHT22;9924;50.828;6.440;2023-04-24T02:24:09;8.70;99.90
19555;DHT22;9924;50.828;6.440;2023-04-24T02:26:54;8.80;99.90
19555;DHT22;9924;50.828;6.440;2023-04-24T02:29:38;8.80;99.90
19555;DHT22;9924;50.828;6.440;2023-04-24T02:32:23;8.80;99.90
19555;DHT22;9924;50.828;6.440;2023-04-24T02:35:07;8.90;99.90
19555;DHT22;9924;50.828;6.440;2023-04-24T02:37:52;8.90;99.90
19555;DHT22;9924;50.828;6.440;2023-04-24T02:40:36;8.90;99.90
19555;DHT22;9924;50.828;6.440;2023-04-24T02:43:20;8.90;99.90
19555;DHT22;9924;50.828;6.440;2023-04-24T02:46:11;8.90;99.90
19555;DHT22;9924;50.828;6.440;2023-04-24T02:48:55;8.80;99.90
19555;DHT22;9924;50.828;6.440;2023-04-24T02:51:40;8.80;99.90
19555;DHT22;9924;50.828;6.440;2023-04-24T02:54:45;8.80;99.90
19555;DHT22;9924;50.828;6.440;2023-04-24T02:57:32;8.70;99.90
19555;DHT22;9924;50.828;6.440;2023-04-24T03:00:16;8.60;99.90
19555;DHT22;9924;50.828;6.440;2023-04-24T03:03:00;8.70;99.90
19555;DHT22;9924;50.828;6.440;2023-04-24T03:05:46;8.70;99.90
19555;DHT22;9924;50.828;6.440;2023-04-24T03:08:32;8.80;99.90
19555;DHT22;9924;50.828;6.440;2023-04-24T03:11:17;8.80;99.90
19555;DHT22;9924;50.828;6.440;2023-04-24T03:14:01;8.70;99.90
19555;DHT22;9924;50.828;6.440;2023-04-24T03:16:46;8.70;99.90
19555;DHT22;9924;50.828;6.440;2023-04-24T03:19:32;8.60;99.90
19555;DHT22;9924;50.828;6.440;2023-04-24T03:22:17;8.60;99.90
19555;DHT22;9924;50.828;6.440;2023-04-24T03:25:01;8.70;99.90
19555;DHT22;9924;50.828;6.440;2023-04-24T03:27:46;8.70;99.90
19555;DHT22;9924;50.828;6.440;2023-04-24T03:30:30;8.80;99.90
19555;DHT22;9924;50.828;6.440;2023-04-24T03:33:15;8.80;99.90
19555;DHT22;9924;50.828;6.440;2023-04-24T03:35:59;8.80;99.90
19555;DHT22;9924;50.828;6.440;2023-04-24T03:38:43;8.80;99.90
19555;DHT22;9924;50.828;6.440;2023-04-24T03:41:29;8.80;99.90
19555;DHT22;9924;50.828;6.440;2023-04-24T03:44:14;8.80;99.90
19555;DHT22;9924;50.828;6.440;2023-04-24T03:46:58;8.80;99.90
19555;DHT22;9924;50.828;6.440;2023-04-24T03:49:44;8.80;99.90
19555;DHT22;9924;50.828;6.440;2023-04-24T03:52:28;8.80;99.90
19555;DHT22;9924;50.828;6.440;2023-04-24T03:55:13;8.80;99.90
19555;DHT22;9924;50.828;6.440;2023-04-24T03:57:58;8.80;99.90
19555;DHT22;9924;50.828;6.440;2023-04-24T04:00:43;8.80;99.90
19555;DHT22;9924;50.828;6.440;2023-04-24T04:03:28;8.80;99.90
19555;DHT22;9924;50.828;6.440;2023-04-24T04:06:12;8.80;99.90
19555;DHT22;9924;50.828;6.440;2023-04-24T04:08:57;8.80;99.90
19555;DHT22;9924;50.828;6.440;2023-04-24T04:11:42;8.70;99.90
19555;DHT22;9924;50.828;6.440;2023-04-24T04:14:29;8.60;99.90
19555;DHT22;9924;50.828;6.440;2023-04-24T04:17:14;8.50;99.90
19555;DHT22;9924;50.828;6.440;2023-04-24T04:19:58;8.50;99.90
19555;DHT22;9924;50.828;6.440;2023-04-24T04:22:43;8.40;99.90
19555;DHT22;9924;50.828;6.440;2023-04-24T04:25:28;8.40;99.90
19555;DHT22;9924;50.828;6.440;2023-04-24T04:28:15;8.40;99.90
19555;DHT22;9924;50.828;6.440;2023-04-24T04:30:59;8.40;99.90
19555;DHT22;9924;50.828;6.440;2023-04-24T04:33:43;8.30;99.90
19555;DHT22;9924;50.828;6.440;2023-04-24T04:36:28;8.30;99.90
19555;DHT22;9924;50.828;6.440;2023-04-24T04:39:13;8.30;99.90
19555;DHT22;9924;50.828;6.440;2023-04-24T04:41:59;8.30;99.90
19555;DHT22;9924;50.828;6.440;2023-04-24T04:44:45;8.30;99.90
19555;DHT22;9924;50.828;6.440;2023-04-24T04:47:29;8.30;99.90
19555;DHT22;9924;50.828;6.440;2023-04-24T04:50:15;8.30;99.90
19555;DHT22;9924;50.828;6.440;2023-04-24T04:53:04;8.40;99.90
19555;DHT22;9924;50.828;6.440;2023-04-24T04:55:49;8.40;99.90
19555;DHT22;9924;50.828;6.440;2023-04-24T04:58:33;8.40;99.90
19555;DHT22;9924;50.828;6.440;2023-04-24T05:01:19;8.40;99.90
19555;DHT22;9924;50.828;6.440;2023-04-24T05:04:04;8.40;99.90
19555;DHT22;9924;50.828;6.440;2023-04-24T05:06:48;8.40;99.90
19555;DHT22;9924;50.828;6.440;2023-04-24T05:09:35;8.40;99.90
19555;DHT22;9924;50.828;6.440;2023-04-24T05:12:19;8.40;99.90
19555;DHT22;9924;50.828;6.440;2023-04-24T05:15:05;8.40;99.90
19555;DHT22;9924;50.828;6.440;2023-04-24T05:17:49;8.50;99.90
19555;DHT22;9924;50.828;6.440;2023-04-24T05:20:34;8.50;99.90
19555;DHT22;9924;50.828;6.440;2023-04-24T05:23:18;8.50;99.90
19555;DHT22;9924;50.828;6.440;2023-04-24T05:26:03;8.50;99.90
19555;DHT22;9924;50.828;6.440;2023-04-24T05:28:48;8.50;99.90
19555;DHT22;9924;50.828;6.440;2023-04-24T05:31:33;8.50;99.90
19555;DHT22;9924;50.828;6.440;2023-04-24T05:34:17;8.50;99.90
19555;DHT22;9924;50.828;6.440;2023-04-24T05:37:02;8.50;99.90
19555;DHT22;9924;50.828;6.440;2023-04-24T05:39:47;8.50;99.90
19555;DHT22;9924;50.828;6.440;2023-04-24T05:42:56;8.60;99.90
19555;DHT22;9924;50.828;6.440;2023-04-24T05:45:47;8.60;99.90
19555;DHT22;9924;50.828;6.440;2023-04-24T05:48:32;8.60;99.90
19555;DHT22;9924;50.828;6.440;2023-04-24T05:51:18;8.50;99.90
19555;DHT22;9924;50.828;6.440;2023-04-24T05:54:03;8.50;99.90
19555;DHT22;9924;50.828;6.440;2023-04-24T05:56:49;8.50;99.90
19555;DHT22;9924;50.828;6.440;2023-04-24T05:59:37;8.50;99.90
19555;DHT22;9924;50.828;6.440;2023-04-24T06:02:22;8.40;99.90
19555;DHT22;9924;50.828;6.440;2023-04-24T06:05:07;8.30;99.90
19555;DHT22;9924;50.828;6.440;2023-04-24T06:07:54;8.20;99.90
19555;DHT22;9924;50.828;6.440;2023-04-24T06:10:39;8.20;99.90
19555;DHT22;9924;50.828;6.440;2023-04-24T06:13:25;8.10;99.90
19555;DHT22;9924;50.828;6.440;2023-04-24T06:16:10;8.10;99.90
19555;DHT22;9924;50.828;6.440;2023-04-24T06:18:54;8.10;99.90
19555;DHT22;9924;50.828;6.440;2023-04-24T06:21:39;8.10;99.90
19555;DHT22;9924;50.828;6.440;2023-04-24T06:24:29;8.10;99.90
19555;DHT22;9924;50.828;6.440;2023-04-24T06:27:13;8.10;99.90
19555;DHT22;9924;50.828;6.440;2023-04-24T06:29:59;8.10;99.90
19555;DHT22;9924;50.828;6.440;2023-04-24T06:32:44;8.10;99.90
19555;DHT22;9924;50.828;6.440;2023-04-24T06:35:29;8.10;99.90
19555;DHT22;9924;50.828;6.440;2023-04-24T06:38:13;8.10;99.90
19555;DHT22;9924;50.828;6.440;2023-04-24T06:40:58;8.10;99.90
19555;DHT22;9924;50.828;6.440;2023-04-24T06:43:45;8.10;99.90
19555;DHT22;9924;50.828;6.440;2023-04-24T06:46:30;8.10;99.90
19555;DHT22;9924;50.828;6.440;2023-04-24T06:49:15;8.10;99.90
19555;DHT22;9924;50.828;6.440;2023-04-24T06:52:00;8.20;99.90
19555;DHT22;9924;50.828;6.440;2023-04-24T06:54:45;8.20;99.90
19555;DHT22;9924;50.828;6.440;2023-04-24T06:57:30;8.20;99.90
19555;DHT22;9924;50.828;6.440;2023-04-24T07:00:15;8.20;99.90
19555;DHT22;9924;50.828;6.440;2023-04-24T07:03:01;8.10;99.90
19555;DHT22;9924;50.828;6.440;2023-04-24T07:05:52;8.20;99.90
19555;DHT22;9924;50.828;6.440;2023-04-24T07:08:37;8.20;99.90
19555;DHT22;9924;50.828;6.440;2023-04-24T07:11:24;8.20;99.90
19555;DHT22;9924;50.828;6.440;2023-04-24T07:14:08;8.00;99.90
19555;DHT22;9924;50.828;6.440;2023-04-24T07:16:53;7.90;99.90
19555;DHT22;9924;50.828;6.440;2023-04-24T07:19:44;7.80;99.90
19555;DHT22;9924;50.828;6.440;2023-04-24T07:22:29;7.70;99.90
19555;DHT22;9924;50.828;6.440;2023-04-24T07:25:13;7.70;99.90
19555;DHT22;9924;50.828;6.440;2023-04-24T07:27:59;7.60;99.90
19555;DHT22;9924;50.828;6.440;2023-04-24T07:30:44;7.60;99.90
19555;DHT22;9924;50.828;6.440;2023-04-24T07:33:28;7.70;99.90
19555;DHT22;9924;50.828;6.440;2023-04-24T07:36:16;7.60;99.90
19555;DHT22;9924;50.828;6.440;2023-04-24T07:39:03;7.60;99.90
19555;DHT22;9924;50.828;6.440;2023-04-24T07:41:49;7.60;99.90
19555;DHT22;9924;50.828;6.440;2023-04-24T07:44:39;7.60;99.90
19555;DHT22;9924;50.828;6.440;2023-04-24T07:47:23;7.70;99.90
19555;DHT22;9924;50.828;6.440;2023-04-24T07:50:08;7.70;99.90
19555;DHT22;9924;50.828;6.440;2023-04-24T07:52:52;7.70;99.90
19555;DHT22;9924;50.828;6.440;2023-04-24T07:55:37;7.70;99.90
19555;DHT22;9924;50.828;6.440;2023-04-24T07:58:22;7.60;99.90
19555;DHT22;9924;50.828;6.440;2023-04-24T08:01:07;7.50;99.90
19555;DHT22;9924;50.828;6.440;2023-04-24T08:03:52;7.50;99.90
19555;DHT22;9924;50.828;6.440;2023-04-24T08:06:36;7.40;99.90
19555;DHT22;9924;50.828;6.440;2023-04-24T08:09:22;7.40;99.90
19555;DHT22;9924;50.828;6.440;2023-04-24T08:12:06;7.40;99.90
19555;DHT22;9924;50.828;6.440;2023-04-24T08:14:51;7.40;99.90
19555;DHT22;9924;50.828;6.440;2023-04-24T08:17:37;7.30;99.90
19555;DHT22;9924;50.828;6.440;2023-04-24T08:20:21;7.40;99.90
19555;DHT22;9924;50.828;6.440;2023-04-24T08:23:05;7.40;99.90
19555;DHT22;9924;50.828;6.440;2023-04-24T08:25:50;7.40;99.90
19555;DHT22;9924;50.828;6.440;2023-04-24T08:28:42;7.50;99.90
19555;DHT22;9924;50.828;6.440;2023-04-24T08:31:33;7.50;99.90
19555;DHT22;9924;50.828;6.440;2023-04-24T08:34:17;7.50;99.90
19555;DHT22;9924;50.828;6.440;2023-04-24T08:37:03;7.50;99.90
19555;DHT22;9924;50.828;6.440;2023-04-24T08:39:56;7.50;99.90
19555;DHT22;9924;50.828;6.440;2023-04-24T08:42:44;7.60;99.90
19555;DHT22;9924;50.828;6.440;2023-04-24T08:45:29;7.60;99.90
19555;DHT22;9924;50.828;6.440;2023-04-24T08:48:14;7.60;99.90
19555;DHT22;9924;50.828;6.440;2023-04-24T08:51:00;7.60;99.90
19555;DHT22;9924;50.828;6.440;2023-04-24T08:53:46;7.60;99.90
19555;DHT22;9924;50.828;6.440;2023-04-24T08:56:33;7.60;99.90
19555;DHT22;9924;50.828;6.440;2023-04-24T08:59:24;7.60;99.90
19555;DHT22;9924;50.828;6.440;2023-04-24T09:02:14;7.70;99.90
19555;DHT22;9924;50.828;6.440;2023-04-24T09:05:02;7.80;99.90
19555;DHT22;9924;50.828;6.440;2023-04-24T09:07:54;7.80;99.90
19555;DHT22;9924;50.828;6.440;2023-04-24T09:10:40;7.90;99.90
19555;DHT22;9924;50.828;6.440;2023-04-24T09:13:26;7.90;99.90
19555;DHT22;9924;50.828;6.440;2023-04-24T09:16:11;8.00;99.90
19555;DHT22;9924;50.828;6.440;2023-04-24T09:18:57;8.00;99.90
19555;DHT22;9924;50.828;6.440;2023-04-24T09:21:45;8.10;99.90
19555;DHT22;9924;50.828;6.440;2023-04-24T09:24:30;8.10;99.90
19555;DHT22;9924;50.828;6.440;2023-04-24T09:27:14;8.10;99.90
19555;DHT22;9924;50.828;6.440;2023-04-24T09:30:03;8.10;99.90
19555;DHT22;9924;50.828;6.440;2023-04-24T09:32:49;8.10;99.90
19555;DHT22;9924;50.828;6.440;2023-04-24T09:35:34;8.00;99.90
19555;DHT22;9924;50.828;6.440;2023-04-24T09:38:32;8.10;99.90
19555;DHT22;9924;50.828;6.440;2023-04-24T09:41:19;8.10;99.90
19555;DHT22;9924;50.828;6.440;2023-04-24T09:44:21;8.20;99.90
19555;DHT22;9924;50.828;6.440;2023-04-24T09:47:12;8.10;99.90
19555;DHT22;9924;50.828;6.440;2023-04-24T09:50:18;8.20;99.90
19555;DHT22;9924;50.828;6.440;2023-04-24T09:53:04;8.40;99.90
19555;DHT22;9924;50.828;6.440;2023-04-24T09:55:48;8.50;99.90
19555;DHT22;9924;50.828;6.440;2023-04-24T09:58:35;8.60;99.90
19555;DHT22;9924;50.828;6.440;2023-04-24T10:01:33;8.80;99.90
19555;DHT22;9924;50.828;6.440;2023-04-24T10:04:25;8.80;99.90
19555;DHT22;9924;50.828;6.440;2023-04-24T10:07:10;8.80;99.90
19555;DHT22;9924;50.828;6.440;2023-04-24T10:09:59;8.80;99.90
19555;DHT22;9924;50.828;6.440;2023-04-24T10:12:44;8.90;99.90
19555;DHT22;9924;50.828;6.440;2023-04-24T10:15:30;9.20;99.90
19555;DHT22;9924;50.828;6.440;2023-04-24T10:18:15;9.60;99.90
19555;DHT22;9924;50.828;6.440;2023-04-24T10:21:01;10.10;99.90
19555;DHT22;9924;50.828;6.440;2023-04-24T10:23:46;10.40;99.90
19555;DHT22;9924;50.828;6.440;2023-04-24T10:26:32;10.30;99.90
19555;DHT22;9924;50.828;6.440;2023-04-24T10:29:20;9.90;99.90
19555;DHT22;9924;50.828;6.440;2023-04-24T10:32:07;9.60;99.90
19555;DHT22;9924;50.828;6.440;2023-04-24T10:34:51;9.50;99.90
19555;DHT22;9924;50.828;6.440;2023-04-24T10:37:48;9.50;99.90
19555;DHT22;9924;50.828;6.440;2023-04-24T10:40:35;9.50;99.90
19555;DHT22;9924;50.828;6.440;2023-04-24T10:43:23;9.40;99.90
19555;DHT22;9924;50.828;6.440;2023-04-24T10:46:19;9.40;99.90
19555;DHT22;9924;50.828;6.440;2023-04-24T10:49:07;9.60;99.90
19555;DHT22;9924;50.828;6.440;2023-04-24T10:51:54;9.80;99.90
19555;DHT22;9924;50.828;6.440;2023-04-24T10:54:47;10.10;99.90
19555;DHT22;9924;50.828;6.440;2023-04-24T10:57:32;10.40;99.90
19555;DHT22;9924;50.828;6.440;2023-04-24T11:03:25;10.90;99.90
19555;DHT22;9924;50.828;6.440;2023-04-24T11:06:10;11.30;99.90
19555;DHT22;9924;50.828;6.440;2023-04-24T11:09:11;11.50;99.90
19555;DHT22;9924;50.828;6.440;2023-04-24T11:12:07;11.40;99.90
19555;DHT22;9924;50.828;6.440;2023-04-24T11:18:03;11.30;99.90
19555;DHT22;9924;50.828;6.440;2023-04-24T11:20:48;11.10;99.90
19555;DHT22;9924;50.828;6.440;2023-04-24T11:23:36;11.10;99.90
19555;DHT22;9924;50.828;6.440;2023-04-24T11:26:27;11.10;99.90
19555;DHT22;9924;50.828;6.440;2023-04-24T11:29:20;11.20;99.90
19555;DHT22;9924;50.828;6.440;2023-04-24T11:32:25;11.10;99.90
19555;DHT22;9924;50.828;6.440;2023-04-24T11:35:16;10.90;99.90
19555;DHT22;9924;50.828;6.440;2023-04-24T11:38:04;10.90;99.90
19555;DHT22;9924;50.828;6.440;2023-04-24T11:40:49;11.00;99.90
19555;DHT22;9924;50.828;6.440;2023-04-24T11:43:35;11.40;99.90
19555;DHT22;9924;50.828;6.440;2023-04-24T11:46:21;11.60;99.90
19555;DHT22;9924;50.828;6.440;2023-04-24T11:49:05;12.00;99.90
19555;DHT22;9924;50.828;6.440;2023-04-24T11:51:50;11.90;99.90
19555;DHT22;9924;50.828;6.440;2023-04-24T11:54:47;11.80;99.90
19555;DHT22;9924;50.828;6.440;2023-04-24T11:57:32;11.80;99.90
19555;DHT22;9924;50.828;6.440;2023-04-24T12:00:31;12.10;99.90
19555;DHT22;9924;50.828;6.440;2023-04-24T12:03:16;12.80;99.90
19555;DHT22;9924;50.828;6.440;2023-04-24T12:06:07;12.80;99.90
19555;DHT22;9924;50.828;6.440;2023-04-24T12:08:52;13.00;99.90
19555;DHT22;9924;50.828;6.440;2023-04-24T12:11:58;13.20;99.90
19555;DHT22;9924;50.828;6.440;2023-04-24T12:14:54;13.70;99.90
19555;DHT22;9924;50.828;6.440;2023-04-24T12:17:41;14.10;99.90
19555;DHT22;9924;50.828;6.440;2023-04-24T12:20:30;14.40;99.90
19555;DHT22;9924;50.828;6.440;2023-04-24T12:26:27;15.50;99.90
19555;DHT22;9924;50.828;6.440;2023-04-24T12:29:11;14.60;99.90
19555;DHT22;9924;50.828;6.440;2023-04-24T12:32:03;13.90;99.90
19555;DHT22;9924;50.828;6.440;2023-04-24T12:34:49;13.50;99.90
19555;DHT22;9924;50.828;6.440;2023-04-24T12:37:35;13.30;99.90
19555;DHT22;9924;50.828;6.440;2023-04-24T12:40:21;13.00;99.90
19555;DHT22;9924;50.828;6.440;2023-04-24T12:43:16;12.60;99.90
19555;DHT22;9924;50.828;6.440;2023-04-24T12:46:00;12.20;99.90
19555;DHT22;9924;50.828;6.440;2023-04-24T12:48:45;12.00;99.90
19555;DHT22;9924;50.828;6.440;2023-04-24T12:51:30;11.70;99.90
19555;DHT22;9924;50.828;6.440;2023-04-24T12:54:14;11.30;99.90
19555;DHT22;9924;50.828;6.440;2023-04-24T12:56:58;10.90;99.90
19555;DHT22;9924;50.828;6.440;2023-04-24T12:59:43;11.00;99.90
19555;DHT22;9924;50.828;6.440;2023-04-24T13:02:29;11.80;99.90
19555;DHT22;9924;50.828;6.440;2023-04-24T13:05:15;12.30;99.90
19555;DHT22;9924;50.828;6.440;2023-04-24T13:07:59;12.40;99.90
19555;DHT22;9924;50.828;6.440;2023-04-24T13:10:45;12.20;99.90
19555;DHT22;9924;50.828;6.440;2023-04-24T13:13:31;12.00;99.90
19555;DHT22;9924;50.828;6.440;2023-04-24T13:16:15;11.80;99.90
19555;DHT22;9924;50.828;6.440;2023-04-24T13:19:00;11.70;99.90
19555;DHT22;9924;50.828;6.440;2023-04-24T13:21:45;11.70;99.90
19555;DHT22;9924;50.828;6.440;2023-04-24T13:24:29;11.70;99.90
19555;DHT22;9924;50.828;6.440;2023-04-24T13:27:15;11.60;99.90
19555;DHT22;9924;50.828;6.440;2023-04-24T13:30:01;11.50;99.90
19555;DHT22;9924;50.828;6.440;2023-04-24T13:32:45;11.70;99.90
19555;DHT22;9924;50.828;6.440;2023-04-24T13:35:30;11.90;99.90
19555;DHT22;9924;50.828;6.440;2023-04-24T13:38:15;12.40;99.90
19555;DHT22;9924;50.828;6.440;2023-04-24T13:40:59;13.20;99.90
19555;DHT22;9924;50.828;6.440;2023-04-24T13:43:48;13.80;99.90
19555;DHT22;9924;50.828;6.440;2023-04-24T13:46:32;13.90;99.90
19555;DHT22;9924;50.828;6.440;2023-04-24T13:49:18;13.70;99.90
19555;DHT22;9924;50.828;6.440;2023-04-24T13:52:02;13.60;99.90
19555;DHT22;9924;50.828;6.440;2023-04-24T13:54:47;13.60;99.90
19555;DHT22;9924;50.828;6.440;2023-04-24T13:57:34;13.60;99.90
19555;DHT22;9924;50.828;6.440;2023-04-24T14:00:26;13.50;99.90
19555;DHT22;9924;50.828;6.440;2023-04-24T14:03:11;13.70;99.90
19555;DHT22;9924;50.828;6.440;2023-04-24T14:05:56;13.90;99.90
19555;DHT22;9924;50.828;6.440;2023-04-24T14:08:40;13.60;99.90
19555;DHT22;9924;50.828;6.440;2023-04-24T14:11:26;13.30;99.90
19555;DHT22;9924;50.828;6.440;2023-04-24T14:14:10;13.30;99.90
19555;DHT22;9924;50.828;6.440;2023-04-24T14:16:55;14.30;99.90
19555;DHT22;9924;50.828;6.440;2023-04-24T14:19:40;15.60;99.90
19555;DHT22;9924;50.828;6.440;2023-04-24T14:22:31;16.20;99.90
19555;DHT22;9924;50.828;6.440;2023-04-24T14:25:18;16.20;99.90
19555;DHT22;9924;50.828;6.440;2023-04-24T14:28:02;15.60;99.90
19555;DHT22;9924;50.828;6.440;2023-04-24T14:30:47;14.70;99.90
19555;DHT22;9924;50.828;6.440;2023-04-24T14:33:32;14.10;99.90
19555;DHT22;9924;50.828;6.440;2023-04-24T14:36:16;13.70;99.90
19555;DHT22;9924;50.828;6.440;2023-04-24T14:39:02;13.80;99.90
19555;DHT22;9924;50.828;6.440;2023-04-24T14:41:52;13.90;99.90
19555;DHT22;9924;50.828;6.440;2023-04-24T14:44:36;14.50;99.90
19555;DHT22;9924;50.828;6.440;2023-04-24T14:47:21;14.50;99.90
19555;DHT22;9924;50.828;6.440;2023-04-24T14:50:06;14.50;99.90
19555;DHT22;9924;50.828;6.440;2023-04-24T14:52:51;14.90;99.90
19555;DHT22;9924;50.828;6.440;2023-04-24T14:55:35;15.50;99.90
19555;DHT22;9924;50.828;6.440;2023-04-24T14:58:20;16.20;99.90
19555;DHT22;9924;50.828;6.440;2023-04-24T15:01:04;16.50;99.90
19555;DHT22;9924;50.828;6.440;2023-04-24T15:03:49;15.90;99.90
19555;DHT22;9924;50.828;6.440;2023-04-24T15:06:35;15.60;99.90
19555;DHT22;9924;50.828;6.440;2023-04-24T15:09:21;15.50;99.90
19555;DHT22;9924;50.828;6.440;2023-04-24T15:12:05;15.70;99.90
19555;DHT22;9924;50.828;6.440;2023-04-24T15:14:50;15.50;99.90
19555;DHT22;9924;50.828;6.440;2023-04-24T15:17:34;15.00;99.90
19555;DHT22;9924;50.828;6.440;2023-04-24T15:20:20;15.00;99.90
19555;DHT22;9924;50.828;6.440;2023-04-24T15:23:05;14.80;99.90
19555;DHT22;9924;50.828;6.440;2023-04-24T15:25:49;14.60;99.90
19555;DHT22;9924;50.828;6.440;2023-04-24T15:28:34;14.50;99.90
19555;DHT22;9924;50.828;6.440;2023-04-24T15:31:21;14.30;99.90
19555;DHT22;9924;50.828;6.440;2023-04-24T15:34:11;14.10;99.90
19555;DHT22;9924;50.828;6.440;2023-04-24T15:36:56;13.90;99.90
19555;DHT22;9924;50.828;6.440;2023-04-24T15:39:41;13.80;99.90
19555;DHT22;9924;50.828;6.440;2023-04-24T15:42:28;13.70;99.90
19555;DHT22;9924;50.828;6.440;2023-04-24T15:45:13;13.40;99.90
19555;DHT22;9924;50.828;6.440;2023-04-24T15:47:58;13.20;99.90
19555;DHT22;9924;50.828;6.440;2023-04-24T15:50:43;13.10;99.90
19555;DHT22;9924;50.828;6.440;2023-04-24T15:53:27;12.80;99.90
19555;DHT22;9924;50.828;6.440;2023-04-24T15:56:13;12.80;99.90
19555;DHT22;9924;50.828;6.440;2023-04-24T15:58:58;12.80;99.90
19555;DHT22;9924;50.828;6.440;2023-04-24T16:01:46;12.70;99.90
19555;DHT22;9924;50.828;6.440;2023-04-24T16:04:31;12.50;99.90
19555;DHT22;9924;50.828;6.440;2023-04-24T16:07:18;12.40;99.90
19555;DHT22;9924;50.828;6.440;2023-04-24T16:10:02;12.40;99.90
19555;DHT22;9924;50.828;6.440;2023-04-24T16:12:49;12.40;99.90
19555;DHT22;9924;50.828;6.440;2023-04-24T16:15:35;12.40;99.90
19555;DHT22;9924;50.828;6.440;2023-04-24T16:18:19;12.50;99.90
19555;DHT22;9924;50.828;6.440;2023-04-24T16:21:04;12.70;99.90
19555;DHT22;9924;50.828;6.440;2023-04-24T16:23:48;12.70;99.90
19555;DHT22;9924;50.828;6.440;2023-04-24T16:26:33;12.70;99.90
19555;DHT22;9924;50.828;6.440;2023-04-24T16:29:37;12.50;99.90
19555;DHT22;9924;50.828;6.440;2023-04-24T16:32:29;12.50;99.90
19555;DHT22;9924;50.828;6.440;2023-04-24T16:35:28;12.30;99.90
19555;DHT22;9924;50.828;6.440;2023-04-24T16:38:13;12.30;99.90
19555;DHT22;9924;50.828;6.440;2023-04-24T16:41:04;12.20;99.90
19555;DHT22;9924;50.828;6.440;2023-04-24T16:43:54;12.20;99.90
19555;DHT22;9924;50.828;6.440;2023-04-24T16:46:38;12.30;99.90
19555;DHT22;9924;50.828;6.440;2023-04-24T16:49:23;12.20;99.90
19555;DHT22;9924;50.828;6.440;2023-04-24T16:52:07;12.10;99.90
19555;DHT22;9924;50.828;6.440;2023-04-24T16:54:53;12.00;99.90
19555;DHT22;9924;50.828;6.440;2023-04-24T16:57:37;11.90;99.90
19555;DHT22;9924;50.828;6.440;2023-04-24T17:00:22;11.80;99.90
19555;DHT22;9924;50.828;6.440;2023-04-24T17:03:08;11.80;99.90
19555;DHT22;9924;50.828;6.440;2023-04-24T17:05:53;11.80;99.90
19555;DHT22;9924;50.828;6.440;2023-04-24T17:08:37;11.80;99.90
19555;DHT22;9924;50.828;6.440;2023-04-24T17:11:22;11.70;99.90
19555;DHT22;9924;50.828;6.440;2023-04-24T17:14:08;11.60;99.90
19555;DHT22;9924;50.828;6.440;2023-04-24T17:16:57;11.50;99.90
19555;DHT22;9924;50.828;6.440;2023-04-24T17:19:41;11.60;99.90
19555;DHT22;9924;50.828;6.440;2023-04-24T17:22:26;11.50;99.90
19555;DHT22;9924;50.828;6.440;2023-04-24T17:25:17;11.50;99.90
19555;DHT22;9924;50.828;6.440;2023-04-24T17:28:01;11.50;99.90
19555;DHT22;9924;50.828;6.440;2023-04-24T17:30:46;11.50;99.90
19555;DHT22;9924;50.828;6.440;2023-04-24T17:33:30;11.40;99.90
19555;DHT22;9924;50.828;6.440;2023-04-24T17:36:16;11.40;99.90
19555;DHT22;9924;50.828;6.440;2023-04-24T17:39:02;11.40;99.90
19555;DHT22;9924;50.828;6.440;2023-04-24T17:41:47;11.30;99.90
19555;DHT22;9924;50.828;6.440;2023-04-24T17:44:31;11.30;99.90
19555;DHT22;9924;50.828;6.440;2023-04-24T17:47:16;11.30;99.90
19555;DHT22;9924;50.828;6.440;2023-04-24T17:50:01;11.20;99.90
19555;DHT22;9924;50.828;6.440;2023-04-24T17:52:46;11.10;99.90
19555;DHT22;9924;50.828;6.440;2023-04-24T17:55:30;11.10;99.90
19555;DHT22;9924;50.828;6.440;2023-04-24T17:58:15;11.00;99.90
19555;DHT22;9924;50.828;6.440;2023-04-24T18:01:02;11.00;99.90
19555;DHT22;9924;50.828;6.440;2023-04-24T18:03:46;11.00;99.90
19555;DHT22;9924;50.828;6.440;2023-04-24T18:06:31;10.90;99.90